createdAt,value
2022-10-17T00:01:51.560Z,9.54
2022-10-17T00:04:21.692Z,9.52
2022-10-17T00:06:51.920Z,9.52
2022-10-17T00:09:21.936Z,9.47
2022-10-17T00:11:51.900Z,9.45
2022-10-17T00:14:21.924Z,9.40
2022-10-17T00:16:54.568Z,9.39
2022-10-17T00:19:24.663Z,9.38
2022-10-17T00:21:55.192Z,9.36
2022-10-17T00:24:25.532Z,9.32
2022-10-17T00:26:55.517Z,9.33
2022-10-17T00:29:25.618Z,9.26
2022-10-17T00:32:01.189Z,9.27
2022-10-17T00:34:32.520Z,9.24
2022-10-17T00:37:02.609Z,9.23
2022-10-17T00:39:32.616Z,9.20
2022-10-17T00:42:02.643Z,9.15
2022-10-17T00:45:02.471Z,9.13
2022-10-17T00:47:36.603Z,9.10
2022-10-17T00:50:07.828Z,9.10
2022-10-17T00:52:38.097Z,9.09
2022-10-17T00:55:13.941Z,9.09
2022-10-17T00:57:46.504Z,9.06
2022-10-17T01:00:18.454Z,9.06
2022-10-17T01:02:51.782Z,9.05
2022-10-17T01:05:22.644Z,9.03
2022-10-17T01:07:55.340Z,9.05
2022-10-17T01:10:27.770Z,9.05
2022-10-17T01:13:09.777Z,9.00
2022-10-17T01:15:49.892Z,8.99
2022-10-17T01:18:35.704Z,8.99
2022-10-17T01:21:28.588Z,9.01
2022-10-17T01:24:27.420Z,8.99
2022-10-17T01:27:13.461Z,8.96
2022-10-17T01:30:00.484Z,8.94
2022-10-17T01:32:40.275Z,8.96
2022-10-17T01:35:16.184Z,8.93
2022-10-17T01:40:47.423Z,8.85
2022-10-17T01:43:23.965Z,8.82
2022-10-17T01:45:59.064Z,8.81
2022-10-17T01:48:38.541Z,8.79
2022-10-17T01:51:14.261Z,8.76
2022-10-17T01:53:50.185Z,8.74
2022-10-17T01:56:22.600Z,8.70
2022-10-17T01:58:56.797Z,8.66
2022-10-17T02:01:29.129Z,8.66
2022-10-17T02:04:03.631Z,8.65
2022-10-17T02:06:37.815Z,8.61
2022-10-17T02:09:24.281Z,8.61
2022-10-17T02:12:06.967Z,8.58
2022-10-17T02:14:49.516Z,8.56
2022-10-17T02:17:33.548Z,8.51
2022-10-17T02:20:14.040Z,8.50
2022-10-17T02:22:52.377Z,8.49
2022-10-17T02:25:30.650Z,8.47
2022-10-17T02:28:09.789Z,8.47
2022-10-17T02:30:48.731Z,8.41
2022-10-17T02:33:26.434Z,8.40
2022-10-17T02:36:07.680Z,8.40
2022-10-17T02:38:38.541Z,8.38
2022-10-17T02:41:12.333Z,8.33
2022-10-17T02:43:45.436Z,8.30
2022-10-17T02:46:20.979Z,8.29
2022-10-17T02:48:54.536Z,8.28
2022-10-17T02:51:35.012Z,8.24
2022-10-17T02:54:12.865Z,8.25
2022-10-17T02:56:49.952Z,8.23
2022-10-17T02:59:24.253Z,8.22
2022-10-17T03:01:55.364Z,8.19
2022-10-17T03:04:25.413Z,8.14
2022-10-17T03:06:58.312Z,8.15
2022-10-17T03:09:28.654Z,8.14
2022-10-17T03:11:58.877Z,8.14
2022-10-17T03:14:28.934Z,8.12
2022-10-17T03:16:59.199Z,8.11
2022-10-17T03:19:29.898Z,8.11
2022-10-17T03:22:02.609Z,8.10
2022-10-17T03:24:33.583Z,8.09
2022-10-17T03:27:03.676Z,8.04
2022-10-17T03:29:33.898Z,8.05
2022-10-17T03:32:05.408Z,8.00
2022-10-17T03:34:35.614Z,8.01
2022-10-17T03:37:08.393Z,8.00
2022-10-17T03:39:40.308Z,8.00
2022-10-17T03:42:10.350Z,7.97
2022-10-17T03:44:40.481Z,7.97
2022-10-17T03:47:13.389Z,7.93
2022-10-17T03:49:44.498Z,7.90
2022-10-17T03:52:18.521Z,7.87
2022-10-17T03:54:48.653Z,7.89
2022-10-17T03:57:19.582Z,7.87
2022-10-17T03:59:50.142Z,7.87
2022-10-17T04:02:22.552Z,7.87
2022-10-17T04:04:53.207Z,7.87
2022-10-17T04:10:18.257Z,7.82
2022-10-17T04:12:48.712Z,7.77
2022-10-17T04:15:19.887Z,7.77
2022-10-17T04:17:49.995Z,7.76
2022-10-17T04:20:20.611Z,7.76
2022-10-17T04:22:53.266Z,7.71
2022-10-17T04:25:23.308Z,7.75
2022-10-17T04:27:55.053Z,7.75
2022-10-17T04:30:29.254Z,7.70
2022-10-17T04:32:59.357Z,7.67
2022-10-17T04:35:31.313Z,7.69
2022-10-17T04:38:08.331Z,7.62
2022-10-17T04:40:39.699Z,7.59
2022-10-17T04:43:09.832Z,7.59
2022-10-17T04:45:41.170Z,7.60
2022-10-17T04:48:11.197Z,7.59
2022-10-17T04:50:41.715Z,7.57
2022-10-17T04:53:35.270Z,7.53
2022-10-17T04:56:11.239Z,7.53
2022-10-17T04:58:42.787Z,7.53
2022-10-17T05:01:16.444Z,7.51
2022-10-17T05:03:50.083Z,7.52
2022-10-17T05:06:22.401Z,7.51
2022-10-17T05:09:13.220Z,7.51
2022-10-17T05:11:45.229Z,7.50
2022-10-17T05:14:16.172Z,7.49
2022-10-17T05:16:46.274Z,7.49
2022-10-17T05:19:17.402Z,7.49
2022-10-17T05:21:51.308Z,7.50
2022-10-17T05:24:24.257Z,7.50
2022-10-17T05:26:54.369Z,7.51
2022-10-17T05:29:24.797Z,7.51
2022-10-17T05:34:32.535Z,7.54
2022-10-17T05:37:02.554Z,7.58
2022-10-17T05:39:35.867Z,7.59
2022-10-17T05:42:07.311Z,7.60
2022-10-17T05:44:39.458Z,7.63
2022-10-17T05:47:11.189Z,7.70
2022-10-17T05:49:46.356Z,7.73
2022-10-17T05:52:20.835Z,7.87
2022-10-17T05:55:08.774Z,7.99
2022-10-17T05:57:39.863Z,8.00
2022-10-17T06:00:15.941Z,8.08
2022-10-17T06:02:49.027Z,8.12
2022-10-17T06:05:21.678Z,8.21
2022-10-17T06:07:52.737Z,8.23
2022-10-17T06:10:26.909Z,8.30
2022-10-17T06:12:58.086Z,8.30
2022-10-17T06:15:34.420Z,8.34
2022-10-17T06:18:09.257Z,8.46
2022-10-17T06:20:43.832Z,8.54
2022-10-17T06:23:17.278Z,8.67
2022-10-17T06:26:05.708Z,8.84
2022-10-17T06:28:36.463Z,8.93
2022-10-17T06:31:10.533Z,9.19
2022-10-17T06:33:40.946Z,9.40
2022-10-17T06:36:14.743Z,9.58
2022-10-17T06:38:46.330Z,9.72
2022-10-17T06:41:39.762Z,9.95
2022-10-17T06:44:11.986Z,10.05
2022-10-17T06:47:05.417Z,10.24
2022-10-17T06:49:35.904Z,10.59
2022-10-17T06:52:26.916Z,10.69
2022-10-17T06:55:18.308Z,10.84
2022-10-17T06:58:15.193Z,11.07
2022-10-17T07:01:03.330Z,11.21
2022-10-17T07:03:34.278Z,11.36
2022-10-17T07:06:04.582Z,11.62
2022-10-17T07:08:35.158Z,11.66
2022-10-17T07:11:12.860Z,11.83
2022-10-17T07:13:46.059Z,11.95
2022-10-17T07:16:16.793Z,12.07
2022-10-17T07:18:52.498Z,12.33
2022-10-17T07:21:23.415Z,12.45
2022-10-17T07:23:53.749Z,12.49
2022-10-17T07:26:24.670Z,12.71
2022-10-17T07:28:58.619Z,12.72
2022-10-17T07:31:37.382Z,12.97
2022-10-17T07:34:07.648Z,13.06
2022-10-17T07:36:38.085Z,13.15
2022-10-17T07:39:10.299Z,13.09
2022-10-17T07:41:41.711Z,13.21
2022-10-17T07:44:15.430Z,13.37
2022-10-17T07:46:49.794Z,13.53
2022-10-17T07:49:21.299Z,13.61
2022-10-17T07:51:52.183Z,13.71
2022-10-17T07:54:22.549Z,13.91
2022-10-17T07:56:52.579Z,13.98
2022-10-17T07:59:25.208Z,13.93
2022-10-17T08:01:59.639Z,14.15
2022-10-17T08:04:32.550Z,14.35
2022-10-17T08:07:19.602Z,14.50
2022-10-17T08:09:52.712Z,14.48
2022-10-17T08:12:23.091Z,14.67
2022-10-17T08:14:55.835Z,14.76
2022-10-17T08:17:25.874Z,14.86
2022-10-17T08:19:56.077Z,14.94
2022-10-17T08:22:26.903Z,15.07
2022-10-17T08:24:57.416Z,15.19
2022-10-17T08:27:29.036Z,15.33
2022-10-17T08:30:01.901Z,15.45
2022-10-17T08:32:32.712Z,15.49
2022-10-17T08:35:03.219Z,15.61
2022-10-17T08:37:33.722Z,15.77
2022-10-17T08:40:04.205Z,15.96
2022-10-17T08:42:48.842Z,15.98
2022-10-17T08:45:31.749Z,16.05
2022-10-17T08:48:04.050Z,16.14
2022-10-17T08:50:39.314Z,16.24
2022-10-17T08:53:16.203Z,16.26
2022-10-17T08:55:50.185Z,16.46
2022-10-17T08:58:23.849Z,16.52
2022-10-17T09:01:11.966Z,16.58
2022-10-17T09:04:04.341Z,16.71
2022-10-17T09:06:38.442Z,16.79
2022-10-17T09:09:25.378Z,16.87
2022-10-17T09:12:18.460Z,16.90
2022-10-17T09:15:02.525Z,16.95
2022-10-17T09:17:45.434Z,17.03
2022-10-17T09:20:19.216Z,17.17
2022-10-17T09:22:54.372Z,17.20
2022-10-17T09:25:24.817Z,17.28
2022-10-17T09:27:57.373Z,17.43
2022-10-17T09:30:45.257Z,17.54
2022-10-17T09:33:35.280Z,17.69
2022-10-17T09:36:16.362Z,17.76
2022-10-17T09:38:50.852Z,17.85
2022-10-17T09:44:23.110Z,18.08
2022-10-17T09:47:04.785Z,18.16
2022-10-17T09:49:39.308Z,18.24
2022-10-17T09:52:15.249Z,18.39
2022-10-17T09:54:48.910Z,18.44
2022-10-17T09:57:20.926Z,18.50
2022-10-17T10:00:00.501Z,18.67
2022-10-17T10:02:34.137Z,18.75
2022-10-17T10:05:11.552Z,18.89
2022-10-17T10:07:42.959Z,18.98
2022-10-17T10:10:30.112Z,19.07
2022-10-17T10:13:09.968Z,19.12
2022-10-17T10:15:42.967Z,19.31
2022-10-17T10:18:35.897Z,19.34
2022-10-17T10:21:11.617Z,19.34
2022-10-17T10:23:43.256Z,19.48
2022-10-17T10:26:26.550Z,19.42
2022-10-17T10:29:01.001Z,19.60
2022-10-17T10:31:37.520Z,19.64
2022-10-17T10:34:21.121Z,19.84
2022-10-17T10:37:02.683Z,19.78
2022-10-17T10:39:44.996Z,19.98
2022-10-17T10:42:25.556Z,20.07
2022-10-17T10:44:57.966Z,20.14
2022-10-17T10:47:31.046Z,20.27
2022-10-17T10:50:21.530Z,20.28
2022-10-17T10:53:03.777Z,20.34
2022-10-17T10:55:39.599Z,20.24
2022-10-17T10:58:26.376Z,20.47
2022-10-17T11:00:59.130Z,20.61
2022-10-17T11:03:37.001Z,20.47
2022-10-17T11:06:15.887Z,20.68
2022-10-17T11:08:53.463Z,20.59
2022-10-17T11:11:32.796Z,20.73
2022-10-17T11:14:13.006Z,20.77
2022-10-17T11:16:50.841Z,20.99
2022-10-17T11:19:28.372Z,21.03
2022-10-17T11:22:08.622Z,21.08
2022-10-17T11:24:47.753Z,21.11
2022-10-17T11:27:18.213Z,21.13
2022-10-17T11:29:49.028Z,21.13
2022-10-17T11:32:25.914Z,21.32
2022-10-17T11:35:00.912Z,21.33
2022-10-17T11:37:37.370Z,21.22
2022-10-17T11:40:22.028Z,21.41
2022-10-17T11:42:59.828Z,21.23
2022-10-17T11:45:37.247Z,21.23
2022-10-17T11:48:16.154Z,21.13
2022-10-17T11:53:50.773Z,21.52
2022-10-17T11:56:29.850Z,21.57
2022-10-17T11:59:12.678Z,21.72
2022-10-17T12:01:49.496Z,21.58
2022-10-17T12:04:29.558Z,21.56
2022-10-17T12:07:12.183Z,21.61
2022-10-17T12:10:00.545Z,21.68
2022-10-17T12:12:36.063Z,21.53
2022-10-17T12:15:31.910Z,21.56
2022-10-17T12:18:04.474Z,21.49
2022-10-17T12:20:39.559Z,21.52
2022-10-17T12:23:29.000Z,21.44
2022-10-17T12:26:04.771Z,21.33
2022-10-17T12:28:45.588Z,21.35
2022-10-17T12:31:33.302Z,21.20
2022-10-17T12:34:06.261Z,21.29
2022-10-17T12:36:47.037Z,21.31
2022-10-17T12:39:49.506Z,21.24
2022-10-17T12:42:49.489Z,21.28
2022-10-17T12:45:52.028Z,21.24
2022-10-17T12:49:02.325Z,21.21
2022-10-17T12:51:37.383Z,21.21
2022-10-17T12:54:15.580Z,21.29
2022-10-17T12:56:48.762Z,21.26
2022-10-17T12:59:21.807Z,21.24
2022-10-17T13:02:00.986Z,21.25
2022-10-17T13:04:32.888Z,21.20
2022-10-17T13:07:03.487Z,21.14
2022-10-17T13:09:36.168Z,21.14
2022-10-17T13:12:09.143Z,21.18
2022-10-17T13:14:44.623Z,21.08
2022-10-17T13:17:28.389Z,21.10
2022-10-17T13:19:59.479Z,21.01
2022-10-17T13:22:32.509Z,20.82
2022-10-17T13:25:11.718Z,20.85
2022-10-17T13:27:41.939Z,20.68
2022-10-17T13:30:31.099Z,20.74
2022-10-17T13:33:06.698Z,20.68
2022-10-17T13:35:59.464Z,20.59
2022-10-17T13:38:34.170Z,20.60
2022-10-17T13:41:33.684Z,20.52
2022-10-17T13:44:00.223Z,20.45
2022-10-17T13:46:39.271Z,20.47
2022-10-17T13:49:35.919Z,20.31
2022-10-17T13:52:08.878Z,20.23
2022-10-17T13:54:41.499Z,20.23
2022-10-17T13:57:22.387Z,20.24
2022-10-17T13:59:56.633Z,20.19
2022-10-17T14:02:28.896Z,20.12
2022-10-17T14:05:18.929Z,20.11
2022-10-17T14:08:15.129Z,20.03
2022-10-17T14:10:47.764Z,19.96
2022-10-17T14:13:25.297Z,19.94
2022-10-17T14:15:56.985Z,19.91
2022-10-17T14:18:35.795Z,19.85
2022-10-17T14:24:17.082Z,19.74
2022-10-17T14:26:51.709Z,19.77
2022-10-17T14:29:27.834Z,19.74
2022-10-17T14:32:05.838Z,19.64
2022-10-17T14:34:41.092Z,19.51
2022-10-17T14:37:28.100Z,19.36
2022-10-17T14:39:59.658Z,19.29
2022-10-17T14:42:30.001Z,19.27
2022-10-17T14:45:10.067Z,19.23
2022-10-17T14:47:44.426Z,19.22
2022-10-17T14:50:28.390Z,19.15
2022-10-17T14:53:09.294Z,18.99
2022-10-17T14:55:41.383Z,19.02
2022-10-17T14:58:21.728Z,18.93
2022-10-17T15:00:55.746Z,18.83
2022-10-17T15:03:25.998Z,18.80
2022-10-17T15:05:58.790Z,18.75
2022-10-17T15:08:31.530Z,18.66
2022-10-17T15:11:01.943Z,18.62
2022-10-17T15:13:38.538Z,18.52
2022-10-17T15:16:18.799Z,18.41
2022-10-17T15:18:49.040Z,18.34
2022-10-17T15:21:33.297Z,18.15
2022-10-17T15:24:11.267Z,18.06
2022-10-17T15:26:43.846Z,18.01
2022-10-17T15:29:18.704Z,17.93
2022-10-17T15:31:49.469Z,17.82
2022-10-17T15:34:20.597Z,17.76
2022-10-17T15:36:54.345Z,17.62
2022-10-17T15:39:27.954Z,17.50
2022-10-17T15:41:59.090Z,17.41
2022-10-17T15:44:29.251Z,17.38
2022-10-17T15:47:00.566Z,17.27
2022-10-17T15:49:30.777Z,17.14
2022-10-17T15:52:01.346Z,17.05
2022-10-17T15:54:34.548Z,16.90
2022-10-17T15:57:04.999Z,16.80
2022-10-17T15:59:38.208Z,16.74
2022-10-17T16:02:16.066Z,16.60
2022-10-17T16:04:46.704Z,16.52
2022-10-17T16:07:18.029Z,16.49
2022-10-17T16:09:51.405Z,16.41
2022-10-17T16:12:27.610Z,16.35
2022-10-17T16:14:58.155Z,16.26
2022-10-17T16:17:28.810Z,16.17
2022-10-17T16:19:59.250Z,16.06
2022-10-17T16:22:37.661Z,15.98
2022-10-17T16:25:19.658Z,15.91
2022-10-17T16:27:51.706Z,15.79
2022-10-17T16:30:23.554Z,15.70
2022-10-17T16:32:58.019Z,15.72
2022-10-17T16:35:36.512Z,15.65
2022-10-17T16:38:08.203Z,15.53
2022-10-17T16:40:42.600Z,15.49
2022-10-17T16:43:16.649Z,15.41
2022-10-17T16:45:48.329Z,15.35
2022-10-17T16:48:19.391Z,15.28
2022-10-17T16:50:49.540Z,15.17
2022-10-17T16:53:22.356Z,15.19
2022-10-17T16:56:07.829Z,15.12
2022-10-17T16:58:38.042Z,15.02
2022-10-17T17:01:14.042Z,14.95
2022-10-17T17:03:47.790Z,14.82
2022-10-17T17:06:20.948Z,14.70
2022-10-17T17:08:54.455Z,14.63
2022-10-17T17:11:30.055Z,14.49
2022-10-17T17:14:02.422Z,14.40
2022-10-17T17:16:35.519Z,14.33
2022-10-17T17:19:08.779Z,14.34
2022-10-17T17:21:39.058Z,14.27
2022-10-17T17:24:09.877Z,14.19
2022-10-17T17:26:47.539Z,14.14
2022-10-17T17:29:17.753Z,14.10
2022-10-17T17:31:48.006Z,14.10
2022-10-17T17:34:18.627Z,14.16
2022-10-17T17:36:55.513Z,14.20
2022-10-17T17:39:27.170Z,14.17
2022-10-17T17:42:00.067Z,14.12
2022-10-17T17:44:30.118Z,14.20
2022-10-17T17:47:00.228Z,14.20
2022-10-17T17:49:30.352Z,14.17
2022-10-17T17:52:00.437Z,14.12
2022-10-17T17:54:30.946Z,14.09
2022-10-17T17:57:04.313Z,14.09
2022-10-17T17:59:34.512Z,14.09
2022-10-17T18:02:07.006Z,14.11
2022-10-17T18:04:37.285Z,14.13
2022-10-17T18:07:07.486Z,14.08
2022-10-17T18:09:38.641Z,14.13
2022-10-17T18:12:12.347Z,14.02
2022-10-17T18:14:43.268Z,14.13
2022-10-17T18:17:13.588Z,13.96
2022-10-17T18:20:08.249Z,13.86
2022-10-17T18:22:45.895Z,13.77
2022-10-17T18:25:16.420Z,13.79
2022-10-17T18:27:51.269Z,13.76
2022-10-17T18:30:25.499Z,13.76
2022-10-17T18:32:57.781Z,13.76
2022-10-17T18:35:28.095Z,13.67
2022-10-17T18:37:58.126Z,13.63
2022-10-17T18:40:28.447Z,13.62
2022-10-17T18:43:01.280Z,13.53
2022-10-17T18:45:34.336Z,13.50
2022-10-17T18:48:04.871Z,13.52
2022-10-17T18:50:35.340Z,13.43
2022-10-17T18:53:06.176Z,13.48
2022-10-17T18:55:36.331Z,13.47
2022-10-17T18:58:11.296Z,13.50
2022-10-17T19:00:42.175Z,13.42
2022-10-17T19:03:12.718Z,13.40
2022-10-17T19:05:45.310Z,13.30
2022-10-17T19:08:16.191Z,13.27
2022-10-17T19:10:46.727Z,13.21
2022-10-17T19:13:21.583Z,13.16
2022-10-17T19:15:52.661Z,13.11
2022-10-17T19:18:22.738Z,13.03
2022-10-17T19:20:53.265Z,12.92
2022-10-17T19:23:23.463Z,12.88
2022-10-17T19:25:54.961Z,12.84
2022-10-17T19:28:30.073Z,12.79
2022-10-17T19:31:00.289Z,12.76
2022-10-17T19:33:30.821Z,12.73
2022-10-17T19:36:03.071Z,12.66
2022-10-17T19:38:33.548Z,12.70
2022-10-17T19:41:04.353Z,12.61
2022-10-17T19:43:38.870Z,12.56
2022-10-17T19:46:11.811Z,12.56
2022-10-17T19:48:42.036Z,12.49
2022-10-17T19:51:15.288Z,12.43
2022-10-17T19:53:46.093Z,12.37
2022-10-17T19:56:18.713Z,12.31
2022-10-17T19:58:54.322Z,12.24
2022-10-17T20:01:27.575Z,12.18
2022-10-17T20:03:58.892Z,12.11
2022-10-17T20:06:30.219Z,12.06
2022-10-17T20:09:00.513Z,11.99
2022-10-17T20:11:32.551Z,11.94
2022-10-17T20:14:06.121Z,11.92
2022-10-17T20:16:39.049Z,11.86
2022-10-17T20:19:11.411Z,11.79
2022-10-17T20:21:43.502Z,11.76
2022-10-17T20:24:16.935Z,11.74
2022-10-17T20:26:47.620Z,11.70
2022-10-17T20:29:24.598Z,11.66
2022-10-17T20:31:56.875Z,11.61
2022-10-17T20:34:27.859Z,11.57
2022-10-17T20:37:01.333Z,11.53
2022-10-17T20:39:32.198Z,11.45
2022-10-17T20:42:02.681Z,11.38
2022-10-17T20:44:36.155Z,11.27
2022-10-17T20:47:15.956Z,11.24
2022-10-17T20:49:46.662Z,11.19
2022-10-17T20:52:17.192Z,11.16
2022-10-17T20:54:47.345Z,11.14
2022-10-17T20:57:17.600Z,11.12
2022-10-17T20:59:50.636Z,11.07
2022-10-17T21:02:20.855Z,11.05
2022-10-17T21:04:51.180Z,11.01
2022-10-17T21:07:22.485Z,10.99
2022-10-17T21:09:52.528Z,10.92
2022-10-17T21:12:31.338Z,10.86
2022-10-17T21:15:12.629Z,10.83
2022-10-17T21:17:43.219Z,10.80
2022-10-17T21:20:15.162Z,10.77
2022-10-17T21:22:45.566Z,10.73
2022-10-17T21:25:16.223Z,10.64
2022-10-17T21:27:46.752Z,10.65
2022-10-17T21:30:21.216Z,10.64
2022-10-17T21:32:57.332Z,10.61
2022-10-17T21:35:27.827Z,10.59
2022-10-17T21:37:57.851Z,10.56
2022-10-17T21:40:27.875Z,10.53
2022-10-17T21:42:57.948Z,10.49
2022-10-17T21:45:38.644Z,10.44
2022-10-17T21:48:13.262Z,10.35
2022-10-17T21:50:44.515Z,10.33
2022-10-17T21:53:17.512Z,10.33
2022-10-17T21:55:47.561Z,10.28
2022-10-17T21:58:18.048Z,10.22
2022-10-17T22:00:52.657Z,10.19
2022-10-17T22:03:23.087Z,10.18
2022-10-17T22:06:06.915Z,10.17
2022-10-17T22:08:43.744Z,10.17
2022-10-17T22:11:16.113Z,10.12
2022-10-17T22:13:46.615Z,10.11
2022-10-17T22:16:19.918Z,10.07
2022-10-17T22:18:49.937Z,10.07
2022-10-17T22:21:25.443Z,10.03
2022-10-17T22:23:59.606Z,10.00
2022-10-17T22:26:30.583Z,9.95
2022-10-17T22:29:00.867Z,9.90
2022-10-17T22:31:33.763Z,9.90
2022-10-17T22:34:05.331Z,9.86
2022-10-17T22:36:36.290Z,9.85
2022-10-17T22:39:07.349Z,9.85
2022-10-17T22:41:37.383Z,9.90
2022-10-17T22:44:08.419Z,9.87
2022-10-17T22:46:42.976Z,9.82
2022-10-17T22:49:13.089Z,9.75
2022-10-17T22:51:43.492Z,9.74
2022-10-17T22:54:13.564Z,9.72
2022-10-17T22:56:43.771Z,9.69
2022-10-17T22:59:13.780Z,9.67
2022-10-17T23:01:47.279Z,9.67
2022-10-17T23:04:19.922Z,9.63
2022-10-17T23:06:49.953Z,9.62
2022-10-17T23:09:20.079Z,9.58
2022-10-17T23:11:50.597Z,9.54
2022-10-17T23:14:21.007Z,9.49
2022-10-17T23:16:53.665Z,9.46
2022-10-17T23:19:23.716Z,9.43
2022-10-17T23:21:54.256Z,9.42
2022-10-17T23:24:24.260Z,9.40
2022-10-17T23:26:54.543Z,9.37
2022-10-17T23:29:25.130Z,9.31
2022-10-17T23:31:59.697Z,9.28
2022-10-17T23:34:31.545Z,9.25
2022-10-17T23:37:01.718Z,9.22
2022-10-17T23:39:32.065Z,9.19
2022-10-17T23:42:02.288Z,9.18
2022-10-17T23:44:32.321Z,9.15
2022-10-17T23:47:05.274Z,9.13
2022-10-17T23:49:35.331Z,9.12
2022-10-17T23:52:05.568Z,9.09
2022-10-17T23:54:36.229Z,9.06
2022-10-17T23:57:06.712Z,9.03
2022-10-17T23:59:36.918Z,9.01
